Time,TemperatureF,DewpointF,PressureIn,WindDirection,WindDirectionDegrees,WindSpeedMPH,WindSpeedGustMPH,Humidity,HourlyPrecipIn,Conditions,Clouds,dailyrainin,SolarRadiationWatts/m^2,SoftwareType,DateUTC
2013-11-12 02:40:00,18.9,10.4,30.67,West,260,0.9,10.8,69,0.00,CLR,,0.00,0.0,WeatherDisplay:10.37,2013-11-12 08:40:00,
2013-11-12 02:45:00,18.8,10.3,30.68,NW,322,0.0,1.2,69,0.00,CLR,,0.00,0.0,WeatherDisplay:10.37,2013-11-12 08:45:00,
2013-11-12 02:50:00,18.8,10.3,30.68,NW,310,0.1,1.2,69,0.00,CLR,,0.00,0.0,WeatherDisplay:10.37,2013-11-12 08:50:00,
2013-11-12 02:55:00,18.6,10.1,30.68,WNW,295,0.3,2.4,69,0.00,CLR,,0.00,0.0,WeatherDisplay:10.37,2013-11-12 08:55:00,
2013-11-12 03:00:00,18.4,9.9,30.69,NW,322,0.0,0.0,69,0.00,CLR,,0.00,0.0,WeatherDisplay:10.37,2013-11-12 09:00:00,
2013-11-12 03:05:00,18.4,10.2,30.69,WNW,288,0.0,0.0,70,0.00,CLR,,0.00,0.0,WeatherDisplay:10.37,2013-11-12 09:05:00,
2013-11-12 03:10:00,18.4,10.2,30.69,NW,316,0.2,2.4,70,0.00,CLR,,0.00,0.0,WeatherDisplay:10.37,2013-11-12 09:10:00,
2013-11-12 03:20:00,18.3,10.1,30.69,WNW,296,1.3,6.0,70,0.00,CLR,,0.00,0.0,WeatherDisplay:10.37,2013-11-12 09:20:00,
2013-11-12 03:25:00,18.1,10.0,30.69,WNW,300,0.0,0.0,70,0.00,CLR,,0.00,0.0,WeatherDisplay:10.37,2013-11-12 09:25:00,
2013-11-12 03:30:00,18.1,10.3,30.69,WNW,297,0.0,0.0,71,0.00,CLR,,0.00,0.0,WeatherDisplay:10.37,2013-11-12 09:30:00,
2013-11-12 03:35:00,18.3,10.8,30.69,NW,311,2.4,6.0,72,0.00,CLR,,0.00,0.0,WeatherDisplay:10.37,2013-11-12 09:35:00,
2013-11-12 03:40:00,18.3,10.8,30.69,WNW,290,0.0,0.0,72,0.00,CLR,,0.00,0.0,WeatherDisplay:10.37,2013-11-12 09:40:00,
2013-11-12 03:45:00,18.1,10.6,30.70,NNW,337,0.3,3.6,72,0.00,CLR,,0.00,0.0,WeatherDisplay:10.37,2013-11-12 09:45:00,
2013-11-12 03:50:00,18.0,10.5,30.70,NW,323,0.0,2.3,72,0.00,CLR,,0.00,0.0,WeatherDisplay:10.37,2013-11-12 09:50:00,
2013-11-12 03:55:00,17.8,10.0,30.70,WNW,296,1.9,4.8,71,0.00,CLR,,0.00,0.0,WeatherDisplay:10.37,2013-11-12 09:55:00,
2013-11-12 04:00:00,17.8,10.0,30.72,WNW,296,0.5,3.6,71,0.00,CLR,,0.00,0.0,WeatherDisplay:10.37,2013-11-12 10:00:00,
2013-11-12 04:05:00,17.7,9.9,30.72,West,277,0.0,5.8,71,0.00,CLR,,0.00,0.0,WeatherDisplay:10.37,2013-11-12 10:05:00,
2013-11-12 04:10:00,17.7,9.9,30.72,NW,317,0.6,4.6,71,0.00,CLR,,0.00,0.0,WeatherDisplay:10.37,2013-11-12 10:10:00,
2013-11-12 04:15:00,17.5,9.7,30.72,NW,318,0.0,0.0,71,0.00,CLR,,0.00,0.0,WeatherDisplay:10.37,2013-11-12 10:15:00,
2013-11-12 04:20:00,17.3,9.5,30.72,NW,323,0.0,0.0,71,0.00,CLR,,0.00,0.0,WeatherDisplay:10.37,2013-11-12 10:20:00,
2013-11-12 04:25:00,17.2,9.4,30.72,WNW,284,0.0,0.0,71,0.00,CLR,,0.00,0.0,WeatherDisplay:10.37,2013-11-12 10:25:00,
2013-11-12 04:30:00,17.2,9.7,30.72,West,269,1.2,3.6,72,0.00,CLR,,0.00,0.0,WeatherDisplay:10.37,2013-11-12 10:30:00,
2013-11-12 04:35:00,17.3,9.8,30.72,WNW,284,0.0,4.6,72,0.00,CLR,,0.00,0.0,WeatherDisplay:10.37,2013-11-12 10:35:00,
2013-11-12 04:40:00,17.3,9.8,30.72,NW,320,4.3,6.0,72,0.00,CLR,,0.00,0.0,WeatherDisplay:10.37,2013-11-12 10:40:00,
2013-11-12 04:45:00,17.5,10.0,30.72,NW,305,0.0,0.0,72,0.00,CLR,,0.00,0.0,WeatherDisplay:10.37,2013-11-12 10:45:00,
2013-11-12 04:50:00,17.3,9.8,30.72,NW,325,0.0,1.2,72,0.00,CLR,,0.00,0.0,WeatherDisplay:10.37,2013-11-12 10:50:00,
2013-11-12 04:55:00,17.3,10.1,30.72,West,280,0.0,0.0,73,0.00,CLR,,0.00,0.0,WeatherDisplay:10.37,2013-11-12 10:55:00,
2013-11-12 05:00:00,17.2,10.0,30.73,West,278,0.0,0.0,73,0.00,CLR,,0.00,0.0,WeatherDisplay:10.37,2013-11-12 11:00:00,
2013-11-12 05:05:00,17.2,10.0,30.73,West,281,0.0,4.8,73,0.00,CLR,,0.00,0.0,WeatherDisplay:10.37,2013-11-12 11:05:00,
2013-11-12 05:10:00,17.2,9.7,30.73,West,276,0.4,2.4,72,0.00,CLR,,0.00,0.0,WeatherDisplay:10.37,2013-11-12 11:10:00,
2013-11-12 05:15:00,17.0,9.5,30.73,West,273,1.5,4.8,72,0.00,CLR,,0.00,0.0,WeatherDisplay:10.37,2013-11-12 11:15:00,
2013-11-12 05:20:00,17.0,9.5,30.74,WNW,286,4.0,7.2,72,0.00,CLR,,0.00,0.0,WeatherDisplay:10.37,2013-11-12 11:20:00,
2013-11-12 05:25:00,17.0,9.5,30.74,WNW,287,3.1,9.6,72,0.00,CLR,,0.00,0.0,WeatherDisplay:10.37,2013-11-12 11:25:00,
2013-11-12 05:30:00,17.0,9.5,30.75,NW,311,4.8,8.4,72,0.00,CLR,,0.00,0.0,WeatherDisplay:10.37,2013-11-12 11:30:00,
2013-11-12 05:35:00,17.2,10.0,30.75,West,276,2.1,7.2,73,0.00,CLR,,0.00,0.0,WeatherDisplay:10.37,2013-11-12 11:35:00,
2013-11-12 05:40:00,17.0,9.5,30.75,WNW,284,0.9,3.6,72,0.00,CLR,,0.00,0.0,WeatherDisplay:10.37,2013-11-12 11:40:00,
2013-11-12 05:45:00,16.9,9.4,30.75,West,261,0.9,6.0,72,0.00,CLR,,0.00,0.0,WeatherDisplay:10.37,2013-11-12 11:45:00,
2013-11-12 05:50:00,16.9,9.4,30.75,West,268,1.0,6.9,72,0.00,CLR,,0.00,0.0,WeatherDisplay:10.37,2013-11-12 11:50:00,
2013-11-12 05:55:00,16.9,9.7,30.75,WNW,303,0.0,0.0,73,0.00,CLR,,0.00,0.0,WeatherDisplay:10.37,2013-11-12 11:55:00,
2013-11-12 06:00:00,16.7,9.2,30.75,WNW,302,1.4,9.2,72,0.00,CLR,,0.00,0.0,WeatherDisplay:10.37,2013-11-12 12:00:00,
2013-11-12 06:05:00,16.5,9.0,30.75,West,273,3.5,7.2,72,0.00,CLR,,0.00,0.0,WeatherDisplay:10.37,2013-11-12 12:05:00,
2013-11-12 06:10:00,16.5,9.0,30.75,WNW,293,0.5,3.6,72,0.00,CLR,,0.00,0.0,WeatherDisplay:10.37,2013-11-12 12:10:00,
2013-11-12 06:15:00,16.5,9.0,30.76,West,260,1.3,4.8,72,0.00,CLR,,0.00,0.0,WeatherDisplay:10.37,2013-11-12 12:15:00,
2013-11-12 06:20:00,16.4,9.3,30.76,WNW,298,2.8,6.0,73,0.00,CLR,,0.00,0.0,WeatherDisplay:10.37,2013-11-12 12:20:00,
2013-11-12 06:25:00,16.5,9.4,30.76,WNW,284,3.1,6.0,73,0.00,CLR,,0.00,0.0,WeatherDisplay:10.37,2013-11-12 12:25:00,
2013-11-12 06:36:00,16.2,9.4,30.77,WNW,288,0.0,9.6,74,0.00,CLR,,0.00,0.0,WeatherDisplay:10.37,2013-11-12 12:36:00,
2013-11-12 06:41:00,16.2,9.4,30.77,West,273,0.0,0.0,74,0.00,CLR,,0.00,0.0,WeatherDisplay:10.37,2013-11-12 12:41:00,
2013-11-12 06:46:00,16.2,9.4,30.77,West,277,0.0,0.0,74,0.00,CLR,,0.00,0.0,WeatherDisplay:10.37,2013-11-12 12:46:00,
2013-11-12 06:51:00,16.1,9.6,30.77,West,266,1.1,3.6,75,0.00,CLR,,0.00,5.0,WeatherDisplay:10.37,2013-11-12 12:51:00,
2013-11-12 06:56:00,15.9,9.1,30.77,NW,307,0.7,3.6,74,0.00,CLR,,0.00,7.0,WeatherDisplay:10.37,2013-11-12 12:56:00,
2013-11-12 07:01:00,15.9,9.4,30.77,WNW,291,0.0,0.0,75,0.00,CLR,,0.00,7.0,WeatherDisplay:10.37,2013-11-12 13:01:00,
2013-11-12 07:06:00,15.9,9.4,30.77,West,273,0.3,2.4,75,0.00,CLR,,0.00,11.0,WeatherDisplay:10.37,2013-11-12 13:06:00,
2013-11-12 07:11:00,15.7,9.2,30.77,West,271,1.5,6.0,75,0.00,CLR,,0.00,12.0,WeatherDisplay:10.37,2013-11-12 13:11:00,
2013-11-12 07:16:00,15.7,9.2,30.77,WNW,298,3.3,7.2,75,0.00,CLR,,0.00,14.0,WeatherDisplay:10.37,2013-11-12 13:16:00,
2013-11-12 07:21:00,15.7,9.5,30.77,NW,313,0.6,3.6,76,0.00,CLR,,0.00,16.0,WeatherDisplay:10.37,2013-11-12 13:21:00,
2013-11-12 07:26:00,15.7,9.2,30.77,NW,315,2.0,9.6,75,0.00,CLR,,0.00,18.0,WeatherDisplay:10.37,2013-11-12 13:26:00,
2013-11-12 07:31:00,15.7,9.5,30.77,West,279,0.0,1.2,76,0.00,CLR,,0.00,23.0,WeatherDisplay:10.37,2013-11-12 13:31:00,
2013-11-12 07:36:00,15.7,9.2,30.77,West,270,2.5,7.2,75,0.00,CLR,,0.00,25.0,WeatherDisplay:10.37,2013-11-12 13:36:00,
2013-11-12 07:41:00,15.6,9.1,30.77,NW,304,0.8,5.8,75,0.00,CLR,,0.00,30.0,WeatherDisplay:10.37,2013-11-12 13:41:00,
2013-11-12 07:46:00,15.7,9.2,30.77,NW,317,0.0,0.0,75,0.00,CLR,,0.00,39.0,WeatherDisplay:10.37,2013-11-12 13:46:00,
2013-11-12 07:51:00,15.9,9.4,30.77,WNW,292,0.5,4.6,75,0.00,CLR,,0.00,91.0,WeatherDisplay:10.37,2013-11-12 13:51:00,
2013-11-12 07:56:00,16.1,9.6,30.77,NW,313,5.2,10.8,75,0.00,CLR,,0.00,84.0,WeatherDisplay:10.37,2013-11-12 13:56:00,
2013-11-12 08:01:00,16.1,9.3,30.78,NW,307,2.2,6.0,74,0.00,CLR,,0.00,84.0,WeatherDisplay:10.37,2013-11-12 14:01:00,
2013-11-12 08:06:00,16.2,9.4,30.78,WNW,282,0.9,4.8,74,0.00,CLR,,0.00,107.0,WeatherDisplay:10.37,2013-11-12 14:06:00,
2013-11-12 08:11:00,16.4,9.6,30.78,West,270,2.3,6.0,74,0.00,CLR,,0.00,120.0,WeatherDisplay:10.37,2013-11-12 14:11:00,
2013-11-12 08:16:00,16.5,9.7,30.78,WNW,287,0.0,2.3,74,0.00,CLR,,0.00,172.0,WeatherDisplay:10.37,2013-11-12 14:16:00,
2013-11-12 08:21:00,16.7,9.8,30.78,WNW,290,4.0,8.4,74,0.00,CLR,,0.00,91.0,WeatherDisplay:10.37,2013-11-12 14:21:00,
2013-11-12 08:26:00,17.0,10.1,30.78,West,274,0.0,1.2,74,0.00,CLR,,0.00,107.0,WeatherDisplay:10.37,2013-11-12 14:26:00,
2013-11-12 08:31:00,17.2,10.3,30.78,NW,313,0.0,0.0,74,0.00,CLR,,0.00,142.0,WeatherDisplay:10.37,2013-11-12 14:31:00,
2013-11-12 08:36:00,17.5,10.3,30.78,West,278,0.3,5.8,73,0.00,CLR,,0.00,144.0,WeatherDisplay:10.37,2013-11-12 14:36:00,
2013-11-12 08:41:00,17.5,10.3,30.78,West,279,1.4,7.2,73,0.00,CLR,,0.00,167.0,WeatherDisplay:10.37,2013-11-12 14:41:00,
2013-11-12 08:46:00,17.5,10.3,30.78,NW,311,1.6,4.8,73,0.00,CLR,,0.00,204.0,WeatherDisplay:10.37,2013-11-12 14:46:00,
2013-11-12 08:51:00,17.5,10.3,30.78,WNW,293,2.6,7.2,73,0.00,CLR,,0.00,171.0,WeatherDisplay:10.37,2013-11-12 14:51:00,
2013-11-12 08:56:00,17.5,10.0,30.78,NW,311,3.4,6.0,72,0.00,CLR,,0.00,179.0,WeatherDisplay:10.37,2013-11-12 14:56:00,
2013-11-12 09:01:00,17.3,9.8,30.79,WNW,296,1.7,3.6,72,0.00,CLR,,0.00,200.0,WeatherDisplay:10.37,2013-11-12 15:01:00,
2013-11-12 09:06:00,17.5,10.3,30.79,WNW,301,4.4,9.6,73,0.00,CLR,,0.00,225.0,WeatherDisplay:10.37,2013-11-12 15:06:00,
2013-11-12 09:11:00,17.7,10.2,30.79,WNW,301,0.0,4.6,72,0.00,CLR,,0.00,262.0,WeatherDisplay:10.37,2013-11-12 15:11:00,
2013-11-12 09:16:00,18.0,10.5,30.79,NW,304,2.0,3.6,72,0.00,CLR,,0.00,236.0,WeatherDisplay:10.37,2013-11-12 15:16:00,
2013-11-12 09:21:00,17.8,10.0,30.79,WNW,289,5.9,8.4,71,0.00,CLR,,0.00,237.0,WeatherDisplay:10.37,2013-11-12 15:21:00,
2013-11-12 09:26:00,18.0,10.2,30.79,NW,315,0.0,0.0,71,0.00,CLR,,0.00,218.0,WeatherDisplay:10.37,2013-11-12 15:26:00,
2013-11-12 09:31:00,18.1,10.3,30.79,NW,305,4.9,8.4,71,0.00,CLR,,0.00,230.0,WeatherDisplay:10.37,2013-11-12 15:31:00,
2013-11-12 09:36:00,18.3,10.5,30.79,West,271,3.1,8.4,71,0.00,CLR,,0.00,209.0,WeatherDisplay:10.37,2013-11-12 15:36:00,
2013-11-12 09:41:00,18.1,10.3,30.79,NW,306,1.4,6.9,71,0.00,CLR,,0.00,183.0,WeatherDisplay:10.37,2013-11-12 15:41:00,
2013-11-12 09:46:00,18.4,10.9,30.79,West,275,0.1,3.5,72,0.00,CLR,,0.00,334.0,WeatherDisplay:10.37,2013-11-12 15:46:00,
2013-11-12 09:51:00,19.1,11.2,30.79,West,281,2.2,6.0,71,0.00,CLR,,0.00,322.0,WeatherDisplay:10.37,2013-11-12 15:51:00,
2013-11-12 09:56:00,19.1,10.6,30.79,WNW,292,6.4,13.2,69,0.00,CLR,,0.00,378.0,WeatherDisplay:10.37,2013-11-12 15:56:00,
2013-11-12 10:01:00,19.2,11.0,30.79,West,277,2.9,6.0,70,0.00,CLR,,0.00,452.0,WeatherDisplay:10.37,2013-11-12 16:01:00,
2013-11-12 10:06:00,19.1,9.9,30.79,WNW,295,2.7,4.8,67,0.00,CLR,,0.00,417.0,WeatherDisplay:10.37,2013-11-12 16:06:00,
2013-11-12 10:11:00,19.4,10.2,30.79,WNW,293,5.2,8.4,67,0.00,CLR,,0.00,455.0,WeatherDisplay:10.37,2013-11-12 16:11:00,
2013-11-12 10:16:00,20.2,11.0,30.79,WNW,292,0.7,4.8,67,0.00,CLR,,0.00,496.0,WeatherDisplay:10.37,2013-11-12 16:16:00,
2013-11-12 10:21:00,20.6,11.0,30.79,WNW,283,0.8,5.8,66,0.00,CLR,,0.00,482.0,WeatherDisplay:10.37,2013-11-12 16:21:00,
2013-11-12 10:26:00,20.5,10.9,30.79,NW,306,3.6,7.2,66,0.00,CLR,,0.00,439.0,WeatherDisplay:10.37,2013-11-12 16:26:00,
2013-11-12 10:31:00,20.8,11.2,30.79,West,267,2.5,6.0,66,0.00,CLR,,0.00,490.0,WeatherDisplay:10.37,2013-11-12 16:31:00,
2013-11-12 10:36:00,20.8,10.5,30.79,NW,309,2.0,9.2,64,0.00,CLR,,0.00,508.0,WeatherDisplay:10.37,2013-11-12 16:36:00,
2013-11-12 10:41:00,21.1,10.5,30.79,West,263,4.8,6.0,63,0.00,CLR,,0.00,496.0,WeatherDisplay:10.37,2013-11-12 16:41:00,
2013-11-12 10:46:00,21.4,11.1,30.79,WNW,285,0.0,0.0,64,0.00,CLR,,0.00,496.0,WeatherDisplay:10.37,2013-11-12 16:46:00,
2013-11-12 10:51:00,21.4,10.4,30.79,WNW,289,0.0,0.0,62,0.00,CLR,,0.00,496.0,WeatherDisplay:10.37,2013-11-12 16:51:00,
2013-11-12 10:56:00,21.1,9.7,30.79,West,278,6.1,9.6,61,0.00,CLR,,0.00,515.0,WeatherDisplay:10.37,2013-11-12 16:56:00,
2013-11-12 11:01:00,21.1,10.1,30.78,WNW,291,1.1,4.8,62,0.00,CLR,,0.00,517.0,WeatherDisplay:10.37,2013-11-12 17:01:00,
2013-11-12 11:06:00,22.1,11.1,30.78,WNW,297,0.0,4.6,62,0.00,CLR,,0.00,519.0,WeatherDisplay:10.37,2013-11-12 17:06:00,
2013-11-12 11:11:00,22.1,11.1,30.78,NW,304,0.8,5.8,62,0.00,CLR,,0.00,520.0,WeatherDisplay:10.37,2013-11-12 17:11:00,
2013-11-12 11:16:00,22.2,10.4,30.78,West,277,3.6,8.1,60,0.00,CLR,,0.00,524.0,WeatherDisplay:10.37,2013-11-12 17:16:00,
2013-11-12 11:21:00,22.2,10.4,30.78,West,272,4.1,7.2,60,0.00,CLR,,0.00,527.0,WeatherDisplay:10.37,2013-11-12 17:21:00,
2013-11-12 11:26:00,22.1,9.9,30.78,WNW,299,4.9,7.2,59,0.00,CLR,,0.00,529.0,WeatherDisplay:10.37,2013-11-12 17:26:00,
2013-11-12 11:31:00,22.5,10.7,30.78,West,260,6.3,7.2,60,0.00,CLR,,0.00,527.0,WeatherDisplay:10.37,2013-11-12 17:31:00,
2013-11-12 11:36:00,22.1,9.9,30.78,West,273,1.0,6.0,59,0.00,CLR,,0.00,527.0,WeatherDisplay:10.37,2013-11-12 17:36:00,
2013-11-12 11:41:00,23.0,11.5,30.78,West,273,0.0,0.0,61,0.00,CLR,,0.00,529.0,WeatherDisplay:10.37,2013-11-12 17:41:00,
2013-11-12 11:46:00,23.5,10.9,30.78,WNW,295,0.0,0.0,58,0.00,CLR,,0.00,526.0,WeatherDisplay:10.37,2013-11-12 17:46:00,
2013-11-12 11:51:00,23.8,11.2,30.78,West,269,2.3,6.0,58,0.00,CLR,,0.00,529.0,WeatherDisplay:10.37,2013-11-12 17:51:00,
2013-11-12 11:56:00,23.9,10.9,30.78,West,279,1.4,6.0,57,0.00,CLR,,0.00,526.0,WeatherDisplay:10.37,2013-11-12 17:56:00,
2013-11-12 12:01:00,24.1,11.0,30.77,WNW,290,0.0,4.6,57,0.00,CLR,,0.00,526.0,WeatherDisplay:10.37,2013-11-12 18:01:00,
2013-11-12 12:06:00,24.4,10.9,30.77,WNW,301,3.8,9.6,56,0.00,CLR,,0.00,520.0,WeatherDisplay:10.37,2013-11-12 18:06:00,
2013-11-12 12:11:00,24.2,9.9,30.77,WSW,258,6.0,8.4,54,0.00,CLR,,0.00,517.0,WeatherDisplay:10.37,2013-11-12 18:11:00,
2013-11-12 12:16:00,24.1,10.2,30.77,WNW,294,1.8,5.8,55,0.00,CLR,,0.00,503.0,WeatherDisplay:10.37,2013-11-12 18:16:00,
2013-11-12 12:21:00,24.5,10.2,30.77,WNW,288,3.0,4.8,54,0.00,CLR,,0.00,510.0,WeatherDisplay:10.37,2013-11-12 18:21:00,
2013-11-12 12:26:00,25.7,11.3,30.77,West,279,0.0,0.0,54,0.00,CLR,,0.00,508.0,WeatherDisplay:10.37,2013-11-12 18:26:00,
2013-11-12 12:31:00,25.4,11.5,30.76,NW,304,2.9,6.0,55,0.00,CLR,,0.00,503.0,WeatherDisplay:10.37,2013-11-12 18:31:00,
2013-11-12 12:36:00,25.6,12.1,30.76,NW,305,2.6,4.8,56,0.00,CLR,,0.00,499.0,WeatherDisplay:10.37,2013-11-12 18:36:00,
2013-11-12 12:41:00,25.3,10.1,30.76,West,281,5.2,6.0,52,0.00,CLR,,0.00,496.0,WeatherDisplay:10.37,2013-11-12 18:41:00,
2013-11-12 12:46:00,25.4,11.0,30.76,WNW,293,0.0,0.0,54,0.00,CLR,,0.00,490.0,WeatherDisplay:10.37,2013-11-12 18:46:00,
2013-11-12 12:51:00,25.8,11.4,30.76,West,270,3.8,6.0,54,0.00,CLR,,0.00,485.0,WeatherDisplay:10.37,2013-11-12 18:51:00,
2013-11-12 12:56:00,25.8,11.4,30.76,West,279,0.1,3.5,54,0.00,CLR,,0.00,480.0,WeatherDisplay:10.37,2013-11-12 18:56:00,
2013-11-12 13:01:00,26.3,11.5,30.76,West,277,0.0,0.0,53,0.00,CLR,,0.00,473.0,WeatherDisplay:10.37,2013-11-12 19:01:00,
2013-11-12 13:14:00,26.7,11.0,30.75,SW,233,5.1,9.6,51,0.00,CLR,,0.00,457.0,WeatherDisplay:10.37,2013-11-12 19:14:00,
2013-11-12 13:19:00,26.9,11.6,30.75,West,262,3.7,4.8,52,0.00,CLR,,0.00,448.0,WeatherDisplay:10.37,2013-11-12 19:19:00,
2013-11-12 13:24:00,26.7,11.4,30.75,SSW,207,1.2,3.6,52,0.00,CLR,,0.00,441.0,WeatherDisplay:10.37,2013-11-12 19:24:00,
2013-11-12 13:29:00,27.2,11.0,30.75,WNW,292,1.6,3.6,50,0.00,CLR,,0.00,438.0,WeatherDisplay:10.37,2013-11-12 19:29:00,
2013-11-12 13:34:00,26.9,9.8,30.75,West,279,5.2,8.4,48,0.00,CLR,,0.00,427.0,WeatherDisplay:10.37,2013-11-12 19:34:00,
2013-11-12 13:39:00,27.2,11.4,30.75,WNW,300,0.1,4.6,51,0.00,CLR,,0.00,417.0,WeatherDisplay:10.37,2013-11-12 19:39:00,
2013-11-12 13:44:00,27.2,11.0,30.74,WNW,298,1.5,4.8,50,0.00,CLR,,0.00,410.0,WeatherDisplay:10.37,2013-11-12 19:44:00,
2013-11-12 13:49:00,27.3,11.5,30.74,WNW,289,0.0,0.0,51,0.00,CLR,,0.00,401.0,WeatherDisplay:10.37,2013-11-12 19:49:00,
2013-11-12 13:54:00,27.5,11.3,30.74,West,266,4.6,6.0,50,0.00,CLR,,0.00,392.0,WeatherDisplay:10.37,2013-11-12 19:54:00,
2013-11-12 13:59:00,27.6,11.4,30.74,West,277,4.6,7.2,50,0.00,CLR,,0.00,385.0,WeatherDisplay:10.37,2013-11-12 19:59:00,
2013-11-12 14:04:00,27.9,11.2,30.73,WSW,239,3.0,4.8,49,0.00,CLR,,0.00,374.0,WeatherDisplay:10.37,2013-11-12 20:04:00,
2013-11-12 14:09:00,27.6,10.9,30.73,WNW,297,2.0,5.8,49,0.00,CLR,,0.00,364.0,WeatherDisplay:10.37,2013-11-12 20:09:00,
2013-11-12 14:14:00,28.1,11.8,30.73,WSW,252,1.9,6.0,50,0.00,CLR,,0.00,352.0,WeatherDisplay:10.37,2013-11-12 20:14:00,
2013-11-12 14:19:00,27.3,10.6,30.73,SW,231,3.4,6.0,49,0.00,CLR,,0.00,341.0,WeatherDisplay:10.37,2013-11-12 20:19:00,
2013-11-12 14:24:00,27.3,11.1,30.73,WSW,257,2.0,4.6,50,0.00,CLR,,0.00,330.0,WeatherDisplay:10.37,2013-11-12 20:24:00,
2013-11-12 14:29:00,28.2,12.4,30.73,West,281,0.8,7.2,51,0.00,CLR,,0.00,320.0,WeatherDisplay:10.37,2013-11-12 20:29:00,
2013-11-12 14:34:00,27.8,11.5,30.73,West,281,7.9,9.6,50,0.00,CLR,,0.00,309.0,WeatherDisplay:10.37,2013-11-12 20:34:00,
2013-11-12 14:39:00,27.5,12.2,30.73,SW,217,5.9,7.2,52,0.00,CLR,,0.00,299.0,WeatherDisplay:10.37,2013-11-12 20:39:00,
2013-11-12 14:44:00,27.2,11.4,30.73,SW,235,6.9,12.0,51,0.00,CLR,,0.00,288.0,WeatherDisplay:10.37,2013-11-12 20:44:00,
2013-11-12 14:49:00,27.5,11.7,30.73,SW,234,3.6,6.0,51,0.00,CLR,,0.00,274.0,WeatherDisplay:10.37,2013-11-12 20:49:00,
2013-11-12 14:54:00,27.3,11.1,30.73,WNW,290,10.1,13.2,50,0.00,CLR,,0.00,264.0,WeatherDisplay:10.37,2013-11-12 20:54:00,
2013-11-12 14:59:00,27.5,11.7,30.73,WNW,296,4.4,12.0,51,0.00,CLR,,0.00,248.0,WeatherDisplay:10.37,2013-11-12 20:59:00,
2013-11-12 15:04:00,27.3,12.0,30.73,WSW,246,3.1,6.9,52,0.00,CLR,,0.00,239.0,WeatherDisplay:10.37,2013-11-12 21:04:00,
2013-11-12 15:09:00,27.2,12.3,30.73,WSW,250,6.1,10.8,53,0.00,CLR,,0.00,225.0,WeatherDisplay:10.37,2013-11-12 21:09:00,
2013-11-12 15:14:00,26.7,11.4,30.72,West,265,7.5,10.4,52,0.00,CLR,,0.00,207.0,WeatherDisplay:10.37,2013-11-12 21:14:00,
2013-11-12 15:19:00,26.9,11.6,30.72,SW,224,2.4,10.4,52,0.00,CLR,,0.00,100.0,WeatherDisplay:10.37,2013-11-12 21:19:00,
2013-11-12 15:24:00,27.0,11.7,30.72,West,265,4.2,7.2,52,0.00,CLR,,0.00,84.0,WeatherDisplay:10.37,2013-11-12 21:24:00,
2013-11-12 15:36:00,26.7,11.4,30.72,WSW,246,1.3,9.6,52,0.00,CLR,,0.00,77.0,WeatherDisplay:10.37,2013-11-12 21:36:00,
2013-11-12 15:41:00,26.7,11.0,30.72,WSW,254,5.8,9.6,51,0.00,CLR,,0.00,60.0,WeatherDisplay:10.37,2013-11-12 21:41:00,
2013-11-12 15:46:00,26.7,11.4,30.71,WNW,294,0.0,0.0,52,0.00,CLR,,0.00,33.0,WeatherDisplay:10.37,2013-11-12 21:46:00,
2013-11-12 15:51:00,26.6,10.9,30.71,West,277,4.4,6.0,51,0.00,CLR,,0.00,33.0,WeatherDisplay:10.37,2013-11-12 21:51:00,
2013-11-12 15:56:00,26.6,10.9,30.71,West,273,3.6,7.2,51,0.00,CLR,,0.00,28.0,WeatherDisplay:10.37,2013-11-12 21:56:00,
2013-11-12 16:01:00,26.6,10.9,30.71,West,273,0.1,3.5,51,0.00,CLR,,0.00,32.0,WeatherDisplay:10.37,2013-11-12 22:01:00,
2013-11-12 16:06:00,26.4,12.0,30.71,West,267,4.1,6.0,54,0.00,CLR,,0.00,28.0,WeatherDisplay:10.37,2013-11-12 22:06:00,
2013-11-12 16:11:00,26.3,12.7,30.71,West,275,1.6,4.8,56,0.00,CLR,,0.00,25.0,WeatherDisplay:10.37,2013-11-12 22:11:00,
2013-11-12 16:16:00,26.1,12.9,30.70,WSW,240,5.3,6.0,57,0.00,CLR,,0.00,19.0,WeatherDisplay:10.37,2013-11-12 22:16:00,
2013-11-12 16:21:00,26.0,13.2,30.70,SW,231,4.5,4.8,58,0.00,CLR,,0.00,14.0,WeatherDisplay:10.37,2013-11-12 22:21:00,
2013-11-12 16:26:00,25.7,12.6,30.70,SW,236,5.4,7.2,57,0.00,CLR,,0.00,11.0,WeatherDisplay:10.37,2013-11-12 22:26:00,
2013-11-12 16:31:00,25.6,12.5,30.70,SW,233,3.7,4.8,57,0.00,CLR,,0.00,9.0,WeatherDisplay:10.37,2013-11-12 22:31:00,
2013-11-12 16:36:00,25.3,12.2,30.70,WSW,250,5.0,7.2,57,0.00,CLR,,0.00,5.0,WeatherDisplay:10.37,2013-11-12 22:36:00,
2013-11-12 16:53:00,24.8,12.5,30.70,WSW,254,0.0,4.8,59,0.00,CLR,,0.00,0.0,WeatherDisplay:10.37,2013-11-12 22:53:00,
2013-11-12 16:58:00,24.7,12.8,30.70,WSW,252,0.0,0.0,60,0.00,CLR,,0.00,0.0,WeatherDisplay:10.37,2013-11-12 22:58:00,
2013-11-12 17:03:00,24.5,13.0,30.69,WSW,250,0.0,0.0,61,0.00,CLR,,0.00,0.0,WeatherDisplay:10.37,2013-11-12 23:03:00,
2013-11-12 17:08:00,24.4,12.9,30.69,WSW,250,0.0,0.0,61,0.00,CLR,,0.00,0.0,WeatherDisplay:10.37,2013-11-12 23:08:00,
2013-11-12 17:13:00,24.4,12.9,30.69,WSW,248,0.0,0.0,61,0.00,CLR,,0.00,0.0,WeatherDisplay:10.37,2013-11-12 23:13:00,
2013-11-12 17:18:00,24.2,13.0,30.68,WSW,248,0.0,0.0,62,0.00,CLR,,0.00,0.0,WeatherDisplay:10.37,2013-11-12 23:18:00,
2013-11-12 17:23:00,24.2,13.0,30.68,WSW,244,0.0,0.0,62,0.00,CLR,,0.00,0.0,WeatherDisplay:10.37,2013-11-12 23:23:00,
2013-11-12 17:28:00,24.2,12.7,30.68,SW,232,1.4,3.5,61,0.00,CLR,,0.00,0.0,WeatherDisplay:10.37,2013-11-12 23:28:00,
2013-11-12 17:33:00,24.1,12.9,30.68,SW,217,0.0,0.0,62,0.00,CLR,,0.00,0.0,WeatherDisplay:10.37,2013-11-12 23:33:00,
2013-11-12 17:38:00,24.1,12.9,30.68,SW,220,0.0,0.0,62,0.00,CLR,,0.00,0.0,WeatherDisplay:10.37,2013-11-12 23:38:00,
2013-11-12 17:43:00,24.1,12.9,30.68,WSW,237,0.0,0.0,62,0.00,CLR,,0.00,0.0,WeatherDisplay:10.37,2013-11-12 23:43:00,
2013-11-12 17:48:00,23.9,12.8,30.67,WSW,237,2.2,3.6,62,0.00,CLR,,0.00,0.0,WeatherDisplay:10.37,2013-11-12 23:48:00,
2013-11-12 17:53:00,23.8,12.7,30.67,WSW,251,1.8,3.5,62,0.00,CLR,,0.00,0.0,WeatherDisplay:10.37,2013-11-12 23:53:00,
2013-11-12 17:58:00,23.8,12.7,30.67,SW,234,1.3,3.6,62,0.00,CLR,,0.00,0.0,WeatherDisplay:10.37,2013-11-12 23:58:00,
2013-11-12 18:03:00,23.6,12.8,30.67,SW,232,0.9,4.8,63,0.00,CLR,,0.00,0.0,WeatherDisplay:10.37,2013-11-13 00:03:00,
2013-11-12 18:15:00,23.3,12.9,30.67,SW,218,0.0,6.0,64,0.00,CLR,,0.00,0.0,WeatherDisplay:10.37,2013-11-13 00:15:00,
2013-11-12 18:20:00,23.3,13.3,30.67,WSW,248,1.9,3.6,65,0.00,CLR,,0.00,0.0,WeatherDisplay:10.37,2013-11-13 00:20:00,
2013-11-12 18:25:00,23.2,13.2,30.67,WSW,240,0.0,0.0,65,0.00,CLR,,0.00,0.0,WeatherDisplay:10.37,2013-11-13 00:25:00,
2013-11-12 18:30:00,23.2,13.5,30.67,WSW,241,0.0,0.0,66,0.00,CLR,,0.00,0.0,WeatherDisplay:10.37,2013-11-13 00:30:00,
2013-11-12 18:35:00,23.0,13.3,30.67,WSW,254,0.0,0.0,66,0.00,CLR,,0.00,0.0,WeatherDisplay:10.37,2013-11-13 00:35:00,
2013-11-12 18:40:00,22.9,13.2,30.67,WSW,251,0.0,0.0,66,0.00,CLR,,0.00,0.0,WeatherDisplay:10.37,2013-11-13 00:40:00,
2013-11-12 18:45:00,22.7,13.4,30.67,WSW,252,0.0,0.0,67,0.00,CLR,,0.00,0.0,WeatherDisplay:10.37,2013-11-13 00:45:00,
2013-11-12 18:50:00,22.5,13.2,30.67,WSW,249,0.0,0.0,67,0.00,CLR,,0.00,0.0,WeatherDisplay:10.37,2013-11-13 00:50:00,
2013-11-12 18:55:00,22.5,13.2,30.67,WSW,248,0.0,0.0,67,0.00,CLR,,0.00,0.0,WeatherDisplay:10.37,2013-11-13 00:55:00,
2013-11-12 19:00:00,22.5,13.2,30.67,West,272,0.0,0.0,67,0.00,CLR,,0.00,0.0,WeatherDisplay:10.37,2013-11-13 01:00:00,
2013-11-12 19:05:00,22.4,13.1,30.67,West,265,0.0,0.0,67,0.00,CLR,,0.00,0.0,WeatherDisplay:10.37,2013-11-13 01:05:00,
2013-11-12 19:10:00,22.4,13.4,30.67,WSW,246,3.3,4.8,68,0.00,CLR,,0.00,0.0,WeatherDisplay:10.37,2013-11-13 01:10:00,
2013-11-12 19:15:00,22.4,13.4,30.66,West,269,0.0,0.0,68,0.00,CLR,,0.00,0.0,WeatherDisplay:10.37,2013-11-13 01:15:00,
2013-11-12 19:20:00,22.4,13.4,30.66,West,268,1.5,4.8,68,0.00,CLR,,0.00,0.0,WeatherDisplay:10.37,2013-11-13 01:20:00,
2013-11-12 19:25:00,22.4,13.4,30.66,WSW,248,0.1,3.5,68,0.00,CLR,,0.00,0.0,WeatherDisplay:10.37,2013-11-13 01:25:00,
2013-11-12 19:30:00,22.2,13.2,30.66,West,261,0.0,0.0,68,0.00,CLR,,0.00,0.0,WeatherDisplay:10.37,2013-11-13 01:30:00,
2013-11-12 19:35:00,22.2,13.6,30.66,West,273,0.6,3.6,69,0.00,CLR,,0.00,0.0,WeatherDisplay:10.37,2013-11-13 01:35:00,
2013-11-12 19:40:00,22.2,13.6,30.66,WSW,246,0.0,2.3,69,0.00,CLR,,0.00,0.0,WeatherDisplay:10.37,2013-11-13 01:40:00,
2013-11-12 19:45:00,22.1,13.5,30.66,WSW,246,1.5,4.8,69,0.00,CLR,,0.00,0.0,WeatherDisplay:10.37,2013-11-13 01:45:00,
2013-11-12 19:50:00,22.1,13.5,30.66,WSW,247,1.1,4.8,69,0.00,CLR,,0.00,0.0,WeatherDisplay:10.37,2013-11-13 01:50:00,
2013-11-12 19:55:00,21.9,13.6,30.66,West,280,0.0,0.0,70,0.00,CLR,,0.00,0.0,WeatherDisplay:10.37,2013-11-13 01:55:00,
2013-11-12 20:00:00,21.9,13.6,30.64,WSW,252,0.5,3.6,70,0.00,CLR,,0.00,0.0,WeatherDisplay:10.37,2013-11-13 02:00:00,
2013-11-12 20:05:00,21.9,13.6,30.64,WSW,253,0.0,5.8,70,0.00,CLR,,0.00,0.0,WeatherDisplay:10.37,2013-11-13 02:05:00,
2013-11-12 20:10:00,21.9,13.6,30.64,WSW,248,0.0,0.0,70,0.00,CLR,,0.00,0.0,WeatherDisplay:10.37,2013-11-13 02:10:00,
2013-11-12 20:15:00,21.9,13.6,30.64,WSW,257,0.0,0.0,70,0.00,CLR,,0.00,0.0,WeatherDisplay:10.37,2013-11-13 02:15:00,
2013-11-12 20:20:00,21.9,13.6,30.64,WNW,288,0.8,3.6,70,0.00,CLR,,0.00,0.0,WeatherDisplay:10.37,2013-11-13 02:20:00,
2013-11-12 20:25:00,21.8,13.2,30.64,WSW,237,1.9,4.8,69,0.00,CLR,,0.00,0.0,WeatherDisplay:10.37,2013-11-13 02:25:00,
2013-11-12 20:30:00,21.8,13.2,30.64,West,259,0.0,0.0,69,0.00,CLR,,0.00,0.0,WeatherDisplay:10.37,2013-11-13 02:30:00,
2013-11-12 20:35:00,21.8,13.2,30.64,WSW,242,0.0,3.5,69,0.00,CLR,,0.00,0.0,WeatherDisplay:10.37,2013-11-13 02:35:00,
2013-11-12 20:40:00,21.6,13.0,30.64,SW,219,0.0,2.3,69,0.00,CLR,,0.00,0.0,WeatherDisplay:10.37,2013-11-13 02:40:00,
2013-11-12 20:45:00,21.4,12.8,30.64,WSW,247,0.0,0.0,69,0.00,CLR,,0.00,0.0,WeatherDisplay:10.37,2013-11-13 02:45:00,
2013-11-12 20:50:00,21.4,12.8,30.64,SSW,213,0.0,2.3,69,0.00,CLR,,0.00,0.0,WeatherDisplay:10.37,2013-11-13 02:50:00,
2013-11-12 20:55:00,21.3,12.7,30.64,SSW,213,3.6,4.8,69,0.00,CLR,,0.00,0.0,WeatherDisplay:10.37,2013-11-13 02:55:00,
2013-11-12 21:00:00,21.1,12.5,30.63,SW,236,0.0,0.0,69,0.00,CLR,,0.00,0.0,WeatherDisplay:10.37,2013-11-13 03:00:00,
2013-11-12 21:05:00,21.0,12.4,30.63,WSW,250,1.2,3.6,69,0.00,CLR,,0.00,0.0,WeatherDisplay:10.37,2013-11-13 03:05:00,
2013-11-12 21:10:00,21.0,12.1,30.63,WSW,254,0.0,0.0,68,0.00,CLR,,0.00,0.0,WeatherDisplay:10.37,2013-11-13 03:10:00,
2013-11-12 21:15:00,20.8,11.9,30.63,SW,232,2.6,3.6,68,0.00,CLR,,0.00,0.0,WeatherDisplay:10.37,2013-11-13 03:15:00,
2013-11-12 21:20:00,20.8,11.6,30.63,WSW,237,0.0,3.5,67,0.00,CLR,,0.00,0.0,WeatherDisplay:10.37,2013-11-13 03:20:00,
2013-11-12 21:25:00,20.8,11.6,30.63,WSW,249,0.0,0.0,67,0.00,CLR,,0.00,0.0,WeatherDisplay:10.37,2013-11-13 03:25:00,
2013-11-12 21:30:00,20.6,11.4,30.63,WSW,247,0.0,0.0,67,0.00,CLR,,0.00,0.0,WeatherDisplay:10.37,2013-11-13 03:30:00,
2013-11-12 21:35:00,20.5,11.3,30.63,WSW,249,0.0,0.0,67,0.00,CLR,,0.00,0.0,WeatherDisplay:10.37,2013-11-13 03:35:00,
2013-11-12 21:40:00,20.3,11.4,30.63,WSW,250,0.0,0.0,68,0.00,CLR,,0.00,0.0,WeatherDisplay:10.37,2013-11-13 03:40:00,
2013-11-12 21:45:00,20.3,11.4,30.63,WSW,254,0.0,0.0,68,0.00,CLR,,0.00,0.0,WeatherDisplay:10.37,2013-11-13 03:45:00,
2013-11-12 21:50:00,20.2,11.0,30.63,West,273,1.1,3.6,67,0.00,CLR,,0.00,0.0,WeatherDisplay:10.37,2013-11-13 03:50:00,
2013-11-12 21:55:00,20.2,11.0,30.63,SW,233,0.0,0.0,67,0.00,CLR,,0.00,0.0,WeatherDisplay:10.37,2013-11-13 03:55:00,
2013-11-12 22:55:00,19.9,11.0,30.60,SW,219,0.3,6.0,68,0.00,CLR,,0.00,0.0,WeatherDisplay:10.37,2013-11-13 04:55:00,
2013-11-12 23:07:00,19.9,11.4,30.60,WSW,248,2.1,4.8,69,0.00,CLR,,0.00,0.0,WeatherDisplay:10.37,2013-11-13 05:07:00,
2013-11-12 23:08:00,19.9,11.4,30.60,WSW,245,0.0,4.8,69,0.00,CLR,,0.00,0.0,WeatherDisplay:10.37,2013-11-13 05:08:00,
2013-11-12 23:13:00,19.9,11.4,30.60,West,263,2.7,4.8,69,0.00,CLR,,0.00,0.0,WeatherDisplay:10.37,2013-11-13 05:13:00,
2013-11-12 23:18:00,19.9,11.4,30.60,WSW,247,2.1,4.8,69,0.00,CLR,,0.00,0.0,WeatherDisplay:10.37,2013-11-13 05:18:00,
2013-11-12 23:23:00,19.9,11.7,30.60,WSW,245,0.0,0.0,70,0.00,CLR,,0.00,0.0,WeatherDisplay:10.37,2013-11-13 05:23:00,
2013-11-12 23:28:00,19.9,11.7,30.60,WSW,248,0.0,0.0,70,0.00,CLR,,0.00,0.0,WeatherDisplay:10.37,2013-11-13 05:28:00,
2013-11-12 23:33:00,19.9,11.7,30.59,SW,217,0.0,0.0,70,0.00,CLR,,0.00,0.0,WeatherDisplay:10.37,2013-11-13 05:33:00,
2013-11-12 23:38:00,19.9,11.7,30.59,SW,219,0.0,0.0,70,0.00,CLR,,0.00,0.0,WeatherDisplay:10.37,2013-11-13 05:38:00,
2013-11-12 23:43:00,19.9,12.0,30.59,SW,219,0.0,0.0,71,0.00,CLR,,0.00,0.0,WeatherDisplay:10.37,2013-11-13 05:43:00,
2013-11-12 23:48:00,19.7,11.5,30.60,SW,236,0.0,0.0,70,0.00,CLR,,0.00,0.0,WeatherDisplay:10.37,2013-11-13 05:48:00,
2013-11-12 23:53:00,19.7,11.5,30.60,SW,236,0.0,0.0,70,0.00,CLR,,0.00,0.0,WeatherDisplay:10.37,2013-11-13 05:53:00,
2013-11-12 23:58:00,19.5,11.3,30.60,SW,227,0.0,0.0,70,0.00,CLR,,0.00,0.0,WeatherDisplay:10.37,2013-11-13 05:58:00,